Lancaster Airport
KLNS : now visible

Airfield :











YOU CAN JOIN US ON...

 
LOGIN :

Register | Disclaimer

   EN    FR    IT 

 









Legend :    VFR   Marginal VFR   IFR   Intensive IFR   Very Intensive IFR
Visi :
Ceiling :
>= 8 km
>= 3000ft
5 to 8 km
1000 to 3000 ft
1500m to 5 km
500 to 1000 ft
800 to 1500m
200 to 500 ft
< 800m
< 200 ft
Symbols :   Thunderstorms  Fog  Heavy snow  Heavy precipitations  Wind > 20 kt






- Airport Elevation : 403 ft
- IATA code : LNS


KLNS - Lancaster

CURRENT METAR :
  • 211853Z 30026G36KT 10SM SCT039 09/00 A2974 RMK AO2 PK WND 29036/1852 SLP070 T00940000

EXPIRED METARs :
  • 211753Z 30023G32KT 10SM FEW032 SCT095 SCT110 09/02 A2973 RMK AO2 PK WND 30036/1742 RAE16 SLP067 P0001 60001 T00940017 10200 20083 51026
  • 211704Z 31013G31KT 7SM RA SCT025 BKN049 OVC060 08/04 A2971 RMK AO2 PK WND 29031/1656 P0000 T00830039
  • 211653Z 30019G29KT 10SM -RA BKN025 BKN037 OVC060 09/04 A2971 RMK AO2 PK WND 30033/1633 RAB1559E24B43 SLP061 P0000 T00940039
  • 211649Z 30021G32KT 10SM -RA BKN025 BKN036 OVC060 10/04 A2971 RMK AO2 PK WND 30033/1633 RAB1559E24B43 PRESRR P0000

TAF KLNS
Valid from the 21 at 18:00 until the 22 at 18:00 UTC


211740Z 2118/2218 31020G30KT P6SM BKN040
FM221500 31020G30KT P6SM SCT050
KZNY FIR / North America



MET'MAP, your aeronautical weather chart ! - Copyright ORBIFLY December 2007 - Disclaimer

ORBIFLY MET'MAP TEAM :

Programming & Development : Alexandra Zaïnal
Concept & original design : Baudouin d'Aumeries
Assistance for programming : Marc-Olivier Méhu
Technical & hardware support : Manuel Goepfert

Contact : metmap@orbifly.com




SOURCES & CREDITS :

   NOAA       Earth
Advisory